Airport View

Enter AWOS ICAO identifier for current METAR.

KFNL for example

KPIT 281951Z 19009KT 10SM FEW008 SCT035 BKN130 OVC250 23/19 A2991

28 Jul 2016 20:11

Phone: 412-472-0145

Other Area AWOS: 42PN - KAGC - KBVI - KBTP

TAF KPIT 281734Z 2818/2924 27005KT P6SM -SHRA OVC045 FM282200 00000KT P6SM -SHRA OVC035 TEMPO 2900/2901 3SM TSRA OVC015CB FM290100 00000KT P6SM OVC035 FM290900 00000KT 4SM BR OVC015 FM291100 32003KT 3SM BR OVC008 FM291330 33004KT P6SM BKN035